Warning: Javascript must be enabled to use all the features on this page!


Page Loading - Please Wait...

Click to hideNews Bulletins

Peak Streamflow for the Nation

USGS 16618000 Kahakuloa Stream near Honokohau, Maui, HI

Maui County, Hawaii
Hydrologic Unit Code 20020000
Latitude  20°58'43.3", Longitude 156°33'16.2" NAD83
Drainage area 3.40  square miles
Gage datum 330.00 feet above LMSL
Output formats
Table
Graph
Tab-separated file
peakfq (watstore) format
Reselect output format
Water
Year
Date Gage
Height
(feet)
Stream-
flow
(cfs)
1940 1940-05-12 2.75 563
1941 1940-11-20 3.77 1,330
1942 1942-03-09 4.17 1,320
1943 1942-12-14 7.02 3,080
1948 1948-01-26 7.18 1,210
1949 1948-12-24 5.06 322
1950 1950-08-02 6.48 936
1951 1950-12-03 6.75 1,050
1952 1951-12-31 8.35 1,670
1953 1953-03-02 5.33 430
1954 1954-03-01 6.04 665
1955 1955-02-07 7.00 1,020
1956 1955-12-20 5.99 665
1957 1957-08-24 6.55 879
1958 1957-12-03 7.82 1,330
1959 1959-01-17 6.52 851
1960 1960-03-05 6.03 676
1961 1960-10-17 6.17 725
1962 1961-10-15 6.72 922
1963 1963-04-14 6.32 780
1964 1964-04-28 4.96 313
1965 1965-05-02 8.48 2,820
1966 1966-04-29 6.70 1,640
1967 1967-03-22 6.17 1,220
1968 1968-03-27 6.34 1,350
1969 1968-11-29 6.03 1,100
1970 1969-12-29 5.96 1,040
1971 1970-11-25 10.57 3,800
1975 1975-01-12 5.89 982
1976 1976-03-04 7.01 1,880
1977 1977-07-27 6.23 1,260
1978 1978-08-21 6.38 1,380
1979 1978-11-13 9.60 3,400
1980 1980-01-10 7.54 2,280
1981 1981-04-30 6.22 1,260
1982 1982-03-31 9.49 3,340
1983 1982-12-29 5.05 456
1984 1984-08-22 5.18 497
1985 1985-02-26 5.20 505
1986 1985-10-18 7.45 2,020
1987 1987-05-05 8.33 2,630
1988 1988-01-28 9.93 4,220
1989 1989-04-05 9.76 4,040
1990 1990-01-16 8.73 2,980
1991 1990-11-11 7.79 2,120
1992 1992-09-03 5.97 855
1993 1993-09-23 9.05 3,300
1994 1994-03-24 7.08 1,550
1995 1994-11-14 7.08 1,550
1996 1995-12-31 6.36 1,070
1997 1997-03-15 6.04 891
1998 1997-12-30 5.30 554
1999 1999-01-22 5.40 591
2000 2000-03-31 5.92 828
2001 2001-02-08 7.49 1,590
2002 2002-01-26 9.85 3,740
2003 2003-04-10 5.96 965
2004 2004-01-01 7.80 1,810
2005 2005-09-15 5.70 648
2006 2006-02-20 7.18 1,390
2007 2006-12-02 6.81 1,170
2008 2007-12-31 6.49 1,000
2009 2009-03-10 5.57 599
2010 2009-12-04 5.44 553
2011 2011-02-12 6.55 1,030
2012 2012-03-09 12.42 4,530
2013 2013-08-09 4.36 1,410
2014 2014-07-20 7.14 2,420
2015 2015-09-03 6.83 2,300
2016 2016-03-21 4.61 1,500
2017 2017-04-20 4.23 1,370
2018 2018-02-18 8.59 2,980
2019 2018-10-20 3.86 1,240
2020 2020-03-02 5.43 1,790
2021 2021-03-09 5.09 1,670